Time;durP1;ratioP1;P1;durP2;ratioP2;P2;SDS_P1;SDS_P2;PMS_P1;PMS_P2;Temp;Humidity;BMP_temperature;BMP_pressure;BME280_temperature;BME280_humidity;BME280_pressure;Samples;Min_cycle;Max_cycle;Signal;HPM_P1;HPM_P2
2024/04/03 00:01:46;;;;;;;6.90;3.22;;;14.40;66.40;16.20;100502.00;;;;5011274;28;20256;-82
2024/04/03 00:04:12;;;;;;;5.10;3.10;;;14.50;67.10;16.20;100495.00;;;;5008322;28;20292;-82
2024/04/03 00:06:39;;;;;;;8.02;4.07;;;14.40;66.40;16.20;100487.00;;;;5014095;28;20285;-82
2024/04/03 00:09:07;;;;;;;6.32;3.78;;;14.50;66.50;16.20;100486.00;;;;5010810;28;20197;-81
2024/04/03 00:11:34;;;;;;;7.20;3.85;;;14.40;66.50;16.20;100494.00;;;;5009745;28;20283;-81
2024/04/03 00:14:00;;;;;;;5.45;2.95;;;14.50;66.50;16.20;100490.00;;;;5011040;28;20220;-81
2024/04/03 00:16:27;;;;;;;6.75;3.97;;;14.50;66.50;16.20;100494.00;;;;5011113;28;20197;-80
2024/04/03 00:18:53;;;;;;;5.50;3.35;;;14.50;66.50;16.20;100489.00;;;;5011538;28;20658;-81
2024/04/03 00:21:20;;;;;;;8.55;3.97;;;14.50;66.60;16.20;100481.00;;;;5009021;28;20228;-80
2024/04/03 00:23:46;;;;;;;3.08;2.78;;;14.50;66.60;16.20;100476.00;;;;5010568;28;20582;-81
2024/04/03 00:26:14;;;;;;;5.00;3.15;;;14.50;66.60;16.20;100473.00;;;;5010772;28;20211;-81
2024/04/03 00:28:40;;;;;;;6.72;3.45;;;14.50;66.60;16.20;100473.00;;;;5011771;28;20586;-82
2024/04/03 00:31:07;;;;;;;7.13;3.75;;;14.50;66.60;16.20;100473.00;;;;5010696;28;20694;-81
2024/04/03 00:33:33;;;;;;;5.53;3.75;;;14.50;66.60;16.20;100476.00;;;;5011079;28;20217;-81
2024/04/03 00:36:01;;;;;;;4.68;3.17;;;14.50;66.70;16.20;100471.00;;;;5011874;28;20283;-81
2024/04/03 00:38:28;;;;;;;5.80;3.67;;;14.50;66.70;16.30;100466.00;;;;5011073;28;20208;-81
2024/04/03 00:41:00;;;;;;;3.70;3.03;;;14.50;66.70;16.20;100464.00;;;;5011412;28;20196;-81
2024/04/03 00:43:29;;;;;;;5.97;3.35;;;14.50;66.70;16.20;100464.00;;;;5011932;28;20304;-81
2024/04/03 00:46:00;;;;;;;4.45;3.30;;;14.50;66.70;16.30;100457.00;;;;5010361;28;20197;-81
2024/04/03 00:48:27;;;;;;;8.40;4.10;;;14.50;67.40;16.30;100449.00;;;;5009062;28;20219;-80
2024/04/03 00:50:57;;;;;;;4.60;3.40;;;14.50;66.70;16.20;100448.00;;;;5010384;28;20502;-80
2024/04/03 00:53:24;;;;;;;7.15;3.78;;;14.50;66.80;16.30;100444.00;;;;5011297;28;20221;-80
2024/04/03 00:55:51;;;;;;;7.35;4.18;;;14.50;66.80;16.30;100451.00;;;;5011485;28;20232;-80
2024/04/03 00:58:17;;;;;;;4.82;3.70;;;14.50;66.80;16.30;100445.00;;;;5010226;28;20200;-80
2024/04/03 01:00:46;;;;;;;7.00;3.58;;;14.50;66.80;16.30;100437.00;;;;5011164;28;20196;-80
2024/04/03 01:03:12;;;;;;;7.38;3.90;;;14.50;66.90;16.30;100442.00;;;;5001741;28;20288;-80
2024/04/03 01:05:39;;;;;;;5.00;3.30;;;14.50;66.80;16.30;100435.00;;;;5011236;28;20267;-80
2024/04/03 01:08:06;;;;;;;7.90;4.00;;;14.50;66.90;16.30;100433.00;;;;5010377;28;20211;-79
2024/04/03 01:10:33;;;;;;;3.97;3.50;;;14.50;66.90;16.30;100433.00;;;;5011091;28;20200;-79
2024/04/03 01:13:01;;;;;;;5.30;4.10;;;14.60;67.00;16.30;100429.00;;;;5010560;28;20229;-80
2024/04/03 01:15:29;;;;;;;4.05;3.65;;;14.50;67.00;16.30;100431.00;;;;5018491;28;20208;-80
2024/04/03 01:17:56;;;;;;;6.25;4.38;;;14.50;67.00;16.30;100419.00;;;;5010741;28;20224;-80
2024/04/03 01:20:25;;;;;;;5.22;4.20;;;14.60;67.10;16.30;100427.00;;;;5010782;28;20564;-80
2024/04/03 01:22:51;;;;;;;5.57;4.28;;;14.50;67.10;16.30;100422.00;;;;5009111;28;20278;-80
2024/04/03 01:25:19;;;;;;;5.78;3.90;;;14.60;67.20;16.30;100423.00;;;;5010310;28;20217;-80
2024/04/03 01:27:45;;;;;;;4.15;3.75;;;14.60;67.20;16.30;100416.00;;;;5015115;28;20211;-80
2024/04/03 01:30:12;;;;;;;5.60;4.00;;;14.60;67.20;16.30;100412.00;;;;5015105;28;20283;-79
2024/04/03 01:32:41;;;;;;;8.32;4.90;;;14.60;67.30;16.30;100412.00;;;;5013533;28;20220;-79
2024/04/03 01:35:08;;;;;;;5.70;5.18;;;14.60;67.30;16.40;100406.00;;;;5013252;28;20223;-79
2024/04/03 01:37:34;;;;;;;6.75;4.93;;;14.60;67.30;16.40;100404.00;;;;5014537;28;20562;-79
2024/04/03 01:40:01;;;;;;;7.53;4.80;;;14.60;67.30;16.40;100403.00;;;;5014691;28;20201;-79
2024/04/03 01:42:28;;;;;;;6.82;5.13;;;14.60;67.40;16.40;100393.00;;;;5014170;28;20213;-78
2024/04/03 01:44:56;;;;;;;7.40;4.63;;;14.60;67.50;16.40;100399.00;;;;5013569;28;20201;-80
2024/04/03 01:47:22;;;;;;;4.90;4.28;;;14.60;67.50;16.40;100390.00;;;;5014468;28;20205;-80
2024/04/03 01:49:54;;;;;;;6.95;4.05;;;14.70;67.50;16.40;100390.00;;;;5021614;28;20205;-80
2024/04/03 01:52:20;;;;;;;5.03;4.30;;;14.60;67.50;16.40;100384.00;;;;5014559;28;20203;-80
2024/04/03 01:54:47;;;;;;;5.72;4.07;;;14.70;67.60;16.40;100385.00;;;;5013790;28;20609;-79
2024/04/03 01:57:14;;;;;;;6.72;3.90;;;14.70;67.60;16.40;100385.00;;;;5014670;28;20185;-79
2024/04/03 01:59:43;;;;;;;3.88;3.28;;;14.70;67.60;16.40;100382.00;;;;5014303;28;20288;-79
2024/04/03 02:02:09;;;;;;;3.50;2.97;;;14.70;67.70;16.40;100377.00;;;;5014965;28;20228;-80
2024/04/03 02:04:36;;;;;;;4.00;2.97;;;14.70;67.70;16.40;100374.00;;;;5013560;28;20234;-80
2024/04/03 02:07:03;;;;;;;4.22;2.53;;;14.70;67.70;16.40;100368.00;;;;5031098;28;20201;-79
2024/04/03 02:09:30;;;;;;;2.53;2.33;;;14.70;67.70;16.40;100363.00;;;;5014543;28;20229;-81
2024/04/03 02:11:56;;;;;;;2.08;1.88;;;14.70;67.70;16.40;100361.00;;;;5014366;28;20193;-81
2024/04/03 02:14:23;;;;;;;2.92;1.70;;;14.70;67.60;16.40;100360.00;;;;5013746;28;20239;-81
2024/04/03 02:16:50;;;;;;;2.20;1.70;;;14.70;67.70;16.40;100355.00;;;;5014201;28;20631;-81
2024/04/03 02:19:17;;;;;;;3.45;1.80;;;14.70;67.70;16.40;100349.00;;;;5010207;28;20212;-80
2024/04/03 02:21:43;;;;;;;2.58;1.55;;;14.70;67.70;16.30;100348.00;;;;5014516;28;20208;-81
2024/04/03 02:24:10;;;;;;;2.20;1.80;;;14.70;67.70;16.40;100341.00;;;;5014305;28;20197;-80
2024/04/03 02:26:36;;;;;;;3.63;1.52;;;14.70;67.80;16.40;100335.00;;;;5012946;28;20215;-80
2024/04/03 02:29:03;;;;;;;2.90;1.75;;;14.70;67.70;16.40;100334.00;;;;5012800;28;20212;-80
2024/04/03 02:31:29;;;;;;;1.25;0.95;;;14.70;67.80;16.40;100334.00;;;;5013487;28;20200;-80
2024/04/03 02:33:58;;;;;;;2.28;1.30;;;14.70;67.70;16.40;100317.00;;;;5013236;28;20221;-80
2024/04/03 02:36:24;;;;;;;2.40;1.40;;;14.70;67.70;16.40;100325.00;;;;5011603;28;20247;-80
2024/04/03 02:38:51;;;;;;;2.28;1.55;;;14.70;67.70;16.40;100324.00;;;;5011877;28;20204;-80
2024/04/03 02:41:17;;;;;;;2.65;1.30;;;14.70;67.80;16.40;100324.00;;;;5021846;28;20289;-80
2024/04/03 02:43:44;;;;;;;2.47;1.77;;;14.70;67.80;16.40;100319.00;;;;5014057;28;20220;-80
2024/04/03 02:46:10;;;;;;;2.05;1.20;;;14.70;67.80;16.40;100310.00;;;;5012646;28;20289;-80
2024/04/03 02:48:38;;;;;;;2.55;1.30;;;14.70;67.80;16.30;100314.00;;;;5012451;28;20209;-78
2024/04/03 02:51:09;;;;;;;1.38;1.13;;;14.70;67.80;16.30;100317.00;;;;5013701;28;20193;-76
2024/04/03 02:53:37;;;;;;;2.72;0.90;;;14.70;67.90;16.40;100302.00;;;;5014364;28;20699;-77
2024/04/03 02:56:05;;;;;;;1.67;1.38;;;14.70;67.80;16.30;100302.00;;;;5013516;28;20208;-77
2024/04/03 02:58:32;;;;;;;2.40;1.08;;;14.70;67.80;16.30;100297.00;;;;5013326;28;20197;-77
2024/04/03 03:01:04;;;;;;;1.92;1.27;;;14.70;67.70;16.30;100287.00;;;;5013192;28;20227;-77
2024/04/03 03:03:31;;;;;;;2.80;1.25;;;14.70;67.80;16.30;100291.00;;;;5013211;28;20239;-77
2024/04/03 03:05:57;;;;;;;3.10;1.08;;;14.70;67.70;16.30;100287.00;;;;5008626;28;20202;-78
2024/04/03 03:08:28;;;;;;;3.47;1.02;;;14.70;67.80;16.30;100272.00;;;;5013035;28;20201;-79
2024/04/03 03:10:55;;;;;;;2.45;0.90;;;14.70;67.80;16.30;100272.00;;;;5012426;28;20284;-78
2024/04/03 03:13:22;;;;;;;2.20;1.10;;;14.60;67.80;16.30;100272.00;;;;5013646;28;20256;-78
2024/04/03 03:15:52;;;;;;;2.60;1.65;;;14.70;67.80;16.30;100271.00;;;;5012772;28;20193;-78
2024/04/03 03:18:21;;;;;;;1.30;1.00;;;14.70;67.80;16.30;100265.00;;;;5013670;28;20197;-78
2024/04/03 03:20:48;;;;;;;2.13;1.00;;;14.70;67.80;16.30;100264.00;;;;5012171;28;20205;-78
2024/04/03 03:23:16;;;;;;;2.58;1.00;;;14.70;67.80;16.30;100258.00;;;;5012443;28;20201;-78
2024/04/03 03:25:45;;;;;;;3.03;1.35;;;14.60;67.80;16.30;100265.00;;;;5012356;28;20683;-78
2024/04/03 03:28:12;;;;;;;3.08;0.88;;;14.70;67.80;16.30;100260.00;;;;5012928;28;20223;-78
2024/04/03 03:30:39;;;;;;;1.67;0.80;;;14.60;67.80;16.30;100267.00;;;;5013854;28;20197;-78
2024/04/03 03:33:06;;;;;;;3.28;1.13;;;14.60;67.70;16.30;100260.00;;;;5012666;28;20221;-78
2024/04/03 03:35:32;;;;;;;1.90;0.85;;;14.60;67.70;16.30;100260.00;;;;5012215;28;20193;-77
2024/04/03 03:38:00;;;;;;;2.58;0.88;;;14.60;67.70;16.30;100250.00;;;;5012741;28;20223;-77
2024/04/03 03:40:28;;;;;;;2.35;0.93;;;14.60;67.70;16.30;100249.00;;;;5011922;28;20203;-78
2024/04/03 03:42:56;;;;;;;1.38;1.00;;;14.60;67.70;16.30;100249.00;;;;5012222;28;20196;-78
2024/04/03 03:45:23;;;;;;;2.33;1.00;;;14.60;68.40;16.30;100257.00;;;;5011842;28;20198;-78
2024/04/03 03:47:50;;;;;;;2.22;1.08;;;14.60;67.70;16.30;100247.00;;;;5018838;28;20201;-77
2024/04/03 03:53:02;;;;;;;3.35;1.15;;;14.60;67.80;16.30;100235.00;;;;5012945;28;20226;-78
2024/04/03 03:55:30;;;;;;;1.42;0.98;;;14.60;67.80;16.30;100242.00;;;;5011769;28;20200;-77
2024/04/03 03:57:59;;;;;;;2.58;1.00;;;14.60;67.70;16.30;100237.00;;;;5012459;28;20243;-78
2024/04/03 04:00:27;;;;;;;1.13;0.77;;;14.60;67.70;16.30;100230.00;;;;5012266;28;20670;-78
2024/04/03 04:02:54;;;;;;;1.85;0.80;;;14.60;67.70;16.30;100229.00;;;;5012215;28;20268;-78
2024/04/03 04:05:21;;;;;;;2.50;0.90;;;14.60;67.70;16.30;100226.00;;;;5012025;28;20562;-77
2024/04/03 04:07:47;;;;;;;1.70;0.90;;;14.60;67.80;16.30;100229.00;;;;5012687;28;20197;-78
2024/04/03 04:10:15;;;;;;;3.55;0.88;;;14.60;67.80;16.30;100226.00;;;;5010686;28;20307;-78
2024/04/03 04:12:42;;;;;;;2.25;0.95;;;14.60;67.80;16.30;100224.00;;;;5008094;28;20201;-78
2024/04/03 04:15:10;;;;;;;1.73;0.80;;;14.60;67.80;16.30;100225.00;;;;5009801;28;20248;-78
2024/04/03 04:17:37;;;;;;;2.28;1.20;;;14.60;67.80;16.30;100225.00;;;;5011726;28;20200;-78
2024/04/03 04:20:07;;;;;;;1.15;0.93;;;14.60;67.80;16.30;100230.00;;;;5011309;28;20666;-78
2024/04/03 04:22:34;;;;;;;2.38;1.02;;;14.60;67.80;16.30;100218.00;;;;5011273;28;20216;-78
2024/04/03 04:25:03;;;;;;;3.38;1.10;;;14.60;67.80;16.30;100218.00;;;;5012489;28;20271;-78
2024/04/03 04:27:30;;;;;;;2.10;0.90;;;14.60;67.80;16.30;100215.00;;;;5010080;28;20217;-78
2024/04/03 04:29:58;;;;;;;2.45;1.20;;;14.60;67.90;16.30;100218.00;;;;5012045;28;20263;-78
2024/04/03 04:32:25;;;;;;;2.63;1.05;;;14.60;67.90;16.30;100209.00;;;;5011643;28;20661;-78
2024/04/03 04:34:55;;;;;;;1.73;0.88;;;14.60;67.90;16.30;100214.00;;;;5010982;28;20285;-77
2024/04/03 04:37:22;;;;;;;2.13;1.33;;;14.60;67.90;16.30;100207.00;;;;5011331;28;20212;-78
2024/04/03 04:39:49;;;;;;;2.53;0.75;;;14.60;67.80;16.30;100210.00;;;;5024664;28;20207;-78
2024/04/03 04:42:15;;;;;;;4.32;0.65;;;14.60;67.90;16.30;100207.00;;;;5011759;28;20197;-78
2024/04/03 04:44:42;;;;;;;5.55;1.50;;;14.60;67.80;16.30;100198.00;;;;5011815;28;20613;-77
2024/04/03 04:47:08;;;;;;;2.45;1.40;;;14.60;67.90;16.30;100207.00;;;;5010912;28;20193;-77
2024/04/03 04:49:37;;;;;;;4.15;1.15;;;14.60;68.60;16.30;100201.00;;;;5011345;28;20667;-78
2024/04/03 04:52:04;;;;;;;2.47;1.25;;;14.60;67.90;16.30;100199.00;;;;5011642;28;20215;-77
2024/04/03 04:54:31;;;;;;;5.03;1.48;;;14.60;67.90;16.30;100204.00;;;;4999499;28;20231;-78
2024/04/03 04:56:57;;;;;;;3.13;1.02;;;14.60;67.90;16.30;100194.00;;;;5019375;28;20585;-77
2024/04/03 04:59:24;;;;;;;1.92;1.30;;;14.60;67.90;16.30;100201.00;;;;5011414;28;20197;-80
2024/04/03 05:01:50;;;;;;;2.70;1.33;;;14.60;67.90;16.30;100208.00;;;;5010103;28;20225;-80
2024/04/03 05:04:17;;;;;;;3.03;1.08;;;14.60;67.90;16.30;100201.00;;;;5003755;28;20207;-78
2024/04/03 05:06:44;;;;;;;2.05;1.10;;;14.60;67.90;16.30;100204.00;;;;5010913;28;20205;-78
2024/04/03 05:09:11;;;;;;;2.28;1.10;;;14.60;68.00;16.30;100194.00;;;;5011529;28;20204;-77
2024/04/03 05:11:37;;;;;;;2.20;0.93;;;14.60;68.00;16.30;100185.00;;;;5009877;28;20651;-78
2024/04/03 05:14:04;;;;;;;1.45;1.10;;;14.60;68.00;16.30;100188.00;;;;5010510;28;20231;-78
2024/04/03 05:16:30;;;;;;;1.67;0.90;;;14.60;68.00;16.30;100184.00;;;;5011349;28;20220;-78
2024/04/03 05:18:59;;;;;;;1.60;0.95;;;14.60;68.00;16.30;100180.00;;;;5010647;28;20193;-78
2024/04/03 05:21:26;;;;;;;2.22;1.23;;;14.60;68.00;16.20;100173.00;;;;5010381;28;20223;-78
2024/04/03 05:23:54;;;;;;;1.92;1.08;;;14.60;68.00;16.20;100176.00;;;;5011367;28;20196;-78
2024/04/03 05:26:20;;;;;;;3.72;0.95;;;14.60;68.00;16.20;100171.00;;;;5011726;28;20227;-78
2024/04/03 05:28:47;;;;;;;2.00;1.40;;;14.50;67.90;16.20;100169.00;;;;5009095;28;20220;-78
2024/04/03 05:31:15;;;;;;;3.90;1.45;;;14.50;67.90;16.20;100168.00;;;;5016438;28;20197;-77
2024/04/03 05:33:43;;;;;;;1.80;1.05;;;14.50;68.00;16.20;100168.00;;;;5007388;28;20779;-77
2024/04/03 05:36:10;;;;;;;2.45;0.90;;;14.50;68.00;16.20;100168.00;;;;5010719;28;20193;-79
2024/04/03 05:38:38;;;;;;;2.05;1.17;;;14.50;67.90;16.20;100157.00;;;;5010583;28;20233;-78
2024/04/03 05:41:08;;;;;;;3.05;0.95;;;14.50;67.90;16.20;100159.00;;;;5010743;28;20197;-78
2024/04/03 05:43:36;;;;;;;3.13;0.93;;;14.50;68.00;16.20;100161.00;;;;5004440;28;20307;-78
2024/04/03 05:46:02;;;;;;;2.53;0.90;;;14.50;68.00;16.20;100161.00;;;;5011432;28;20193;-78
2024/04/03 05:48:30;;;;;;;3.85;1.17;;;14.50;68.00;16.20;100158.00;;;;5008910;28;20201;-78
2024/04/03 05:51:00;;;;;;;4.72;1.15;;;14.50;68.10;16.10;100162.00;;;;5009517;28;20194;-80
2024/04/03 05:53:28;;;;;;;3.08;1.30;;;14.50;68.20;16.20;100159.00;;;;5011414;28;20251;-80
2024/04/03 05:55:55;;;;;;;1.70;0.90;;;14.50;68.20;16.20;100156.00;;;;5009850;28;20637;-81
2024/04/03 05:58:23;;;;;;;3.10;1.48;;;14.50;68.20;16.20;100152.00;;;;5009922;28;20205;-80
2024/04/03 06:00:50;;;;;;;2.38;1.48;;;14.50;68.30;16.20;100148.00;;;;5010571;28;20201;-79
2024/04/03 06:03:17;;;;;;;2.28;1.00;;;14.50;68.20;16.20;100150.00;;;;5009516;28;20201;-80
2024/04/03 06:05:46;;;;;;;1.23;0.60;;;14.50;68.90;16.20;100148.00;;;;5008249;28;20668;-80
2024/04/03 06:08:13;;;;;;;5.75;1.08;;;14.50;68.20;16.20;100149.00;;;;5017665;28;20212;-82
2024/04/03 06:10:39;;;;;;;1.40;0.77;;;14.50;68.30;16.20;100150.00;;;;5018827;28;20662;-81
2024/04/03 06:13:06;;;;;;;2.17;1.20;;;14.60;68.40;16.30;100148.00;;;;5020911;28;20193;-80
2024/04/03 06:15:34;;;;;;;2.35;1.20;;;14.50;68.50;16.30;100145.00;;;;5016112;28;20709;-81
2024/04/03 06:18:01;;;;;;;7.20;1.52;;;14.50;68.50;16.30;100139.00;;;;5013976;28;20224;-83
2024/04/03 06:20:28;;;;;;;3.13;1.20;;;14.50;68.50;16.30;100149.00;;;;5012844;28;20286;-82
2024/04/03 06:22:55;;;;;;;1.95;1.40;;;14.60;68.60;16.30;100147.00;;;;5012431;28;20201;-81
2024/04/03 06:25:21;;;;;;;1.77;0.98;;;14.60;68.50;16.30;100147.00;;;;5013638;28;20205;-80
2024/04/03 06:27:49;;;;;;;3.88;1.10;;;14.60;68.50;16.30;100144.00;;;;5012911;28;20244;-85
2024/04/03 06:30:15;;;;;;;1.83;1.02;;;14.60;68.50;16.30;100143.00;;;;5014396;28;20193;-82
2024/04/03 06:32:46;;;;;;;3.08;1.10;;;14.60;68.50;16.30;100145.00;;;;5013781;28;20296;-82
2024/04/03 06:35:13;;;;;;;2.90;1.33;;;14.60;68.50;16.40;100144.00;;;;5012498;28;20232;-82
2024/04/03 06:37:40;;;;;;;2.47;1.05;;;14.70;68.50;16.40;100146.00;;;;5010066;28;20212;-82
2024/04/03 06:40:08;;;;;;;3.47;1.52;;;14.70;68.60;16.40;100136.00;;;;5010528;28;20193;-83
2024/04/03 06:42:35;;;;;;;1.77;0.80;;;14.70;68.60;16.40;100142.00;;;;5013043;28;20596;-84
2024/04/03 06:45:02;;;;;;;3.15;0.90;;;14.70;68.50;16.40;100137.00;;;;5013602;28;20204;-79
2024/04/03 06:47:29;;;;;;;2.17;1.20;;;14.70;68.50;16.40;100134.00;;;;5012891;28;20193;-83
2024/04/03 06:49:57;;;;;;;3.13;1.27;;;14.70;68.50;16.40;100133.00;;;;5006015;28;20616;-81
2024/04/03 06:52:25;;;;;;;2.40;1.42;;;14.70;68.50;16.40;100128.00;;;;5007034;28;20627;-83
2024/04/03 06:54:52;;;;;;;3.05;1.40;;;14.70;68.50;16.40;100131.00;;;;5014290;28;20235;-81
2024/04/03 06:57:19;;;;;;;2.35;1.20;;;14.70;68.60;16.50;100128.00;;;;5014721;28;20197;-81
2024/04/03 06:59:45;;;;;;;2.50;1.10;;;14.70;68.60;16.40;100122.00;;;;5011392;28;20197;-85
2024/04/03 07:02:12;;;;;;;1.67;0.88;;;14.70;68.70;16.50;100124.00;;;;5013055;28;20587;-83
2024/04/03 07:04:38;;;;;;;4.22;1.25;;;14.80;68.80;16.50;100118.00;;;;4994542;28;20209;-86
2024/04/03 07:07:08;;;;;;;1.70;0.70;;;14.80;68.80;16.50;100111.00;;;;5004086;28;20288;-84
2024/04/03 07:09:35;;;;;;;2.15;1.05;;;14.80;68.80;16.50;100114.00;;;;5002939;28;20221;-84
2024/04/03 07:12:03;;;;;;;4.80;1.40;;;14.80;68.80;16.60;100114.00;;;;5003977;28;20205;-85
2024/04/03 07:14:29;;;;;;;2.95;1.20;;;14.80;68.80;16.60;100114.00;;;;4994809;28;20245;-83
2024/04/03 07:16:56;;;;;;;3.67;1.20;;;14.90;69.00;16.70;100112.00;;;;5006260;28;20205;-84
2024/04/03 07:19:22;;;;;;;1.63;0.85;;;14.90;69.00;16.70;100118.00;;;;5009679;28;20204;-83
2024/04/03 07:21:49;;;;;;;3.25;1.13;;;14.90;69.00;16.70;100116.00;;;;5011469;28;20196;-83
2024/04/03 07:24:16;;;;;;;1.58;0.80;;;15.00;69.00;16.80;100118.00;;;;5009947;28;20201;-85
2024/04/03 07:26:45;;;;;;;2.33;0.93;;;15.00;69.00;16.80;100107.00;;;;5005881;28;20323;-85
2024/04/03 07:29:12;;;;;;;1.60;1.05;;;15.00;68.90;16.80;100111.00;;;;5004733;28;20193;-83
2024/04/03 07:31:39;;;;;;;0.95;0.77;;;15.10;68.90;16.80;100106.00;;;;5012025;28;20563;-84
2024/04/03 07:34:05;;;;;;;1.88;0.88;;;15.10;68.90;16.80;100111.00;;;;5011498;28;20694;-85
2024/04/03 07:36:32;;;;;;;2.00;0.90;;;15.10;69.40;16.90;100099.00;;;;5012032;28;20196;-84
2024/04/03 07:38:58;;;;;;;4.15;1.10;;;15.20;68.70;16.90;100105.00;;;;5012351;28;20205;-84
2024/04/03 07:41:31;;;;;;;1.65;0.90;;;15.20;68.70;16.90;100118.00;;;;5011790;28;20700;-81
2024/04/03 07:43:57;;;;;;;2.42;1.00;;;15.20;68.70;16.90;100112.00;;;;5013196;28;20207;-82
2024/04/03 07:46:24;;;;;;;2.25;0.95;;;15.20;68.60;16.90;100117.00;;;;5012761;28;20193;-81
2024/04/03 07:48:51;;;;;;;4.00;1.33;;;15.20;68.60;17.00;100110.00;;;;5011715;28;20262;-81
2024/04/03 07:51:19;;;;;;;2.95;0.85;;;15.20;68.60;17.00;100106.00;;;;5010440;28;20242;-82
2024/04/03 07:53:45;;;;;;;1.75;1.05;;;15.30;68.60;17.00;100108.00;;;;5012923;28;20235;-82
2024/04/03 07:56:13;;;;;;;4.90;1.10;;;15.30;68.60;17.00;100105.00;;;;5012218;28;20185;-82
2024/04/03 07:58:41;;;;;;;2.45;1.02;;;15.30;68.50;17.00;100109.00;;;;5010600;28;20201;-81
2024/04/03 08:01:08;;;;;;;3.00;1.25;;;15.30;68.50;17.10;100111.00;;;;5006709;28;20236;-81
2024/04/03 08:03:34;;;;;;;3.08;1.40;;;15.30;68.50;17.10;100117.00;;;;5017587;28;20197;-80
2024/04/03 08:06:02;;;;;;;2.97;0.90;;;15.30;68.50;17.10;100109.00;;;;5011810;28;20235;-80
2024/04/03 08:08:28;;;;;;;1.67;0.85;;;15.40;69.20;17.10;100106.00;;;;5012386;28;20420;-82
2024/04/03 08:11:00;;;;;;;3.08;1.30;;;15.40;68.50;17.10;100107.00;;;;5011473;28;20205;-80
2024/04/03 08:13:27;;;;;;;4.78;1.10;;;15.40;68.60;17.10;100107.00;;;;5006355;28;20291;-81
2024/04/03 08:16:02;;;;;;;1.77;1.15;;;15.40;68.50;17.00;100113.00;;;;5011329;28;20225;-79
2024/04/03 08:18:28;;;;;;;2.78;1.10;;;15.40;68.40;17.10;100110.00;;;;5012133;28;20628;-81
2024/04/03 08:21:06;;;;;;;1.65;1.08;;;15.40;68.20;17.10;100111.00;;;;5007562;28;20244;-82
2024/04/03 08:23:33;;;;;;;1.30;0.90;;;15.40;68.30;17.10;100109.00;;;;5010647;28;20192;-82
2024/04/03 08:26:06;;;;;;;3.15;0.93;;;15.50;68.30;17.10;100118.00;;;;5010073;28;20223;-82
2024/04/03 08:28:35;;;;;;;1.55;0.82;;;15.40;68.30;17.10;100112.00;;;;5012002;28;20682;-84
2024/04/03 08:31:10;;;;;;;2.13;1.00;;;15.40;68.20;17.10;100110.00;;;;5012690;28;20188;-87
2024/04/03 08:33:36;;;;;;;3.75;1.13;;;15.50;68.30;17.10;100113.00;;;;5016105;28;20208;-82
2024/04/03 08:36:03;;;;;;;2.53;1.35;;;15.40;68.20;17.10;100114.00;;;;5015071;28;20192;-82
2024/04/03 08:38:29;;;;;;;1.50;0.90;;;15.40;68.10;17.10;100110.00;;;;5009843;28;20200;-86
2024/04/03 08:40:57;;;;;;;5.10;1.25;;;15.40;68.20;17.10;100115.00;;;;5012754;28;20229;-84
2024/04/03 08:43:23;;;;;;;3.58;1.63;;;15.40;68.20;17.10;100114.00;;;;5007988;28;20240;-83
2024/04/03 08:45:52;;;;;;;3.40;1.50;;;15.40;68.20;17.10;100112.00;;;;5011443;28;20204;-83
2024/04/03 08:48:22;;;;;;;3.97;1.23;;;15.40;68.20;17.10;100114.00;;;;5011349;28;20682;-82
2024/04/03 08:50:50;;;;;;;3.78;1.60;;;15.40;68.20;17.10;100114.00;;;;5009779;28;20207;-84
2024/04/03 08:53:18;;;;;;;3.33;1.27;;;15.40;68.20;17.10;100114.00;;;;5013106;28;20708;-82
2024/04/03 08:55:47;;;;;;;2.40;0.90;;;15.40;68.30;17.10;100122.00;;;;5010194;28;20856;-85
2024/04/03 08:58:14;;;;;;;1.75;1.00;;;15.40;68.50;17.10;100119.00;;;;5013470;28;20204;-85
2024/04/03 09:00:42;;;;;;;2.17;1.10;;;15.40;68.50;17.10;100113.00;;;;5010525;28;20563;-85
2024/04/03 09:03:11;;;;;;;2.42;1.02;;;15.40;68.50;17.10;100117.00;;;;5020636;28;20228;-86
2024/04/03 09:05:40;;;;;;;1.20;0.75;;;15.40;68.70;17.20;100117.00;;;;5013083;28;20203;-85
2024/04/03 09:08:08;;;;;;;1.40;1.13;;;15.40;68.70;17.20;100115.00;;;;5010738;28;20200;-85
2024/04/03 09:10:41;;;;;;;0.85;0.63;;;15.50;68.90;17.20;100113.00;;;;5010582;28;20259;-87
2024/04/03 09:13:08;;;;;;;1.63;0.85;;;15.50;68.80;17.30;100109.00;;;;5015988;28;20278;-83
2024/04/03 09:15:35;;;;;;;3.70;1.30;;;15.50;68.70;17.20;100108.00;;;;5016367;28;20691;-79
2024/04/03 09:18:04;;;;;;;2.17;1.02;;;15.50;68.60;17.30;100113.00;;;;5008704;28;20204;-86
2024/04/03 09:20:32;;;;;;;1.70;0.70;;;15.60;68.70;17.30;100113.00;;;;5012101;28;20283;-82
2024/04/03 09:22:59;;;;;;;1.40;1.00;;;15.60;68.70;17.30;100107.00;;;;5012624;28;20204;-86
2024/04/03 09:25:27;;;;;;;2.45;1.10;;;15.60;68.70;17.30;100112.00;;;;5011067;28;20595;-86
2024/04/03 09:28:01;;;;;;;1.75;0.80;;;15.60;68.60;17.30;100107.00;;;;5012772;28;20596;-86
2024/04/03 09:30:29;;;;;;;1.98;1.08;;;15.60;68.70;17.40;100113.00;;;;5020713;28;20242;-84
2024/04/03 09:32:57;;;;;;;1.77;1.05;;;15.60;68.70;17.40;100118.00;;;;5010313;28;20197;-77
2024/04/03 09:35:28;;;;;;;1.58;1.20;;;15.60;68.70;17.40;100114.00;;;;5010277;28;20629;-85
2024/04/03 09:37:55;;;;;;;1.23;0.80;;;15.70;68.80;17.40;100119.00;;;;5010298;28;20201;-85
2024/04/03 09:40:26;;;;;;;1.67;1.00;;;15.70;68.90;17.40;100122.00;;;;5013695;28;20517;-85
2024/04/03 09:42:57;;;;;;;1.20;0.77;;;15.70;68.80;17.40;100121.00;;;;5010267;28;20209;-86
2024/04/03 09:45:25;;;;;;;1.65;1.08;;;15.70;68.80;17.50;100124.00;;;;5016170;28;20231;-80
2024/04/03 09:47:59;;;;;;;2.20;0.73;;;15.70;68.70;17.40;100116.00;;;;5009949;28;20188;-84
2024/04/03 09:50:36;;;;;;;1.30;1.00;;;15.80;68.70;17.40;100113.00;;;;5010899;28;20674;-85
2024/04/03 09:53:05;;;;;;;0.95;0.80;;;15.80;68.60;17.50;100115.00;;;;5019660;28;20576;-83
2024/04/03 09:55:36;;;;;;;1.60;1.10;;;15.80;68.50;17.40;100119.00;;;;5016476;28;20375;-88
2024/04/03 09:58:03;;;;;;;2.72;1.00;;;15.80;68.40;17.40;100122.00;;;;5026669;28;20207;-87
2024/04/03 10:00:30;;;;;;;1.75;1.08;;;15.80;68.30;17.50;100123.00;;;;5020639;28;20199;-86
2024/04/03 10:02:57;;;;;;;1.80;1.05;;;15.80;68.40;17.50;100119.00;;;;5019064;28;21150;-86
2024/04/03 10:05:35;;;;;;;2.67;1.20;;;15.80;68.50;17.40;100123.00;;;;5015118;28;20197;-85
2024/04/03 10:08:07;;;;;;;2.55;1.25;;;15.80;68.70;17.50;100113.00;;;;5014056;28;20655;-85
2024/04/03 10:10:36;;;;;;;1.35;1.13;;;15.80;69.30;17.50;100116.00;;;;5015875;28;20678;-85
2024/04/03 10:13:03;;;;;;;2.15;1.02;;;15.80;68.70;17.60;100113.00;;;;5025197;28;20196;-87
2024/04/03 10:15:29;;;;;;;1.75;1.17;;;15.80;68.80;17.60;100112.00;;;;5011527;28;20319;-85
2024/04/03 10:18:04;;;;;;;1.73;1.00;;;15.80;68.90;17.60;100108.00;;;;5026392;28;20662;-86
2024/04/03 10:20:35;;;;;;;2.05;1.00;;;15.90;69.10;17.70;100109.00;;;;5016025;28;20195;-81
2024/04/03 10:23:07;;;;;;;1.88;1.10;;;15.90;69.00;17.80;100102.00;;;;5017114;28;20204;-82
2024/04/03 10:25:37;;;;;;;1.67;1.13;;;16.00;69.20;17.80;100105.00;;;;5024713;28;20185;-83
2024/04/03 10:28:10;;;;;;;1.50;1.17;;;16.00;69.30;17.80;100109.00;;;;5014096;28;20292;-83
2024/04/03 10:30:37;;;;;;;1.48;1.30;;;16.00;69.30;18.00;100110.00;;;;5014875;28;20244;-80
2024/04/03 10:33:06;;;;;;;2.38;1.70;;;16.10;69.30;17.90;100105.00;;;;5011794;28;20201;-83
2024/04/03 10:35:32;;;;;;;3.22;1.60;;;16.10;69.10;18.00;100110.00;;;;5013120;28;20574;-80
2024/04/03 10:38:01;;;;;;;2.90;1.27;;;16.20;69.10;18.00;100102.00;;;;5016700;28;20216;-83
2024/04/03 10:40:29;;;;;;;1.48;1.38;;;16.20;68.90;18.00;100106.00;;;;5026969;28;20193;-80
2024/04/03 10:42:57;;;;;;;3.58;1.40;;;16.20;68.80;18.10;100108.00;;;;5013060;28;20212;-80
2024/04/03 10:45:23;;;;;;;2.17;1.20;;;16.30;68.80;18.10;100112.00;;;;5013874;28;20197;-81
2024/04/03 10:47:51;;;;;;;4.20;1.27;;;16.30;68.80;18.10;100105.00;;;;5012381;28;20193;-83
2024/04/03 10:50:18;;;;;;;1.85;1.33;;;16.30;68.70;18.20;100109.00;;;;5012018;28;20201;-81
2024/04/03 10:52:45;;;;;;;2.85;1.38;;;16.40;68.70;18.20;100107.00;;;;5013748;28;20237;-84